createdAt,value
2023-09-23T00:01:51.532Z,190.38
2023-09-23T00:04:20.082Z,188.70
2023-09-23T00:06:50.499Z,202.02
2023-09-23T00:09:19.995Z,214.98
2023-09-23T00:11:47.957Z,207.98
2023-09-23T00:14:16.014Z,190.45
2023-09-23T00:16:45.946Z,160.90
2023-09-23T00:19:14.071Z,196.80
2023-09-23T00:21:42.218Z,149.70
2023-09-23T00:24:11.876Z,154.02
2023-09-23T00:26:39.873Z,155.95
2023-09-23T00:29:08.190Z,183.57
2023-09-23T00:31:36.285Z,203.32
2023-09-23T00:34:04.736Z,151.05
2023-09-23T00:36:32.839Z,185.68
2023-09-23T00:39:03.889Z,188.13
2023-09-23T00:41:33.757Z,126.03
2023-09-23T00:44:05.866Z,129.65
2023-09-23T00:46:36.577Z,131.52
2023-09-23T00:49:08.345Z,166.13
2023-09-23T00:51:38.570Z,172.95
2023-09-23T00:54:14.610Z,174.52
2023-09-23T00:59:31.960Z,187.30
2023-09-23T01:02:00.458Z,164.77
2023-09-23T01:04:28.931Z,187.63
2023-09-23T01:06:57.012Z,168.27
2023-09-23T01:09:27.013Z,183.18
2023-09-23T01:11:57.014Z,141.70
2023-09-23T01:14:26.382Z,155.90
2023-09-23T01:16:55.133Z,178.60
2023-09-23T01:19:27.353Z,155.98
2023-09-23T01:21:57.460Z,176.80
2023-09-23T01:24:31.209Z,155.82
2023-09-23T01:26:59.754Z,143.75
2023-09-23T01:29:29.612Z,145.75
2023-09-23T01:32:30.261Z,170.27
2023-09-23T01:34:58.482Z,159.23
2023-09-23T01:37:26.565Z,166.13
2023-09-23T01:39:55.863Z,176.65
2023-09-23T01:42:23.858Z,183.05
2023-09-23T01:44:51.872Z,196.82
2023-09-23T01:47:22.932Z,193.02
2023-09-23T01:49:51.015Z,194.25
2023-09-23T01:52:19.140Z,198.68
2023-09-23T01:54:48.254Z,190.95
2023-09-23T01:57:18.378Z,186.90
2023-09-23T01:59:46.437Z,171.63
2023-09-23T02:02:14.708Z,222.30
2023-09-23T02:04:42.779Z,214.57
2023-09-23T02:07:11.795Z,252.48
2023-09-23T02:09:39.807Z,191.85
2023-09-23T02:12:07.865Z,146.82
2023-09-23T02:14:37.208Z,142.82
2023-09-23T02:17:05.412Z,147.95
2023-09-23T02:19:33.724Z,150.57
2023-09-23T02:22:06.694Z,159.52
2023-09-23T02:24:37.630Z,177.68
2023-09-23T02:27:05.665Z,192.48
2023-09-23T02:29:55.708Z,170.45
2023-09-23T02:32:25.557Z,174.32
2023-09-23T02:34:53.713Z,168.02
2023-09-23T02:37:21.684Z,155.27
2023-09-23T02:39:49.857Z,162.00
2023-09-23T02:42:18.331Z,165.70
2023-09-23T02:44:46.653Z,167.02
2023-09-23T02:47:19.529Z,156.63
2023-09-23T02:49:47.676Z,163.45
2023-09-23T02:52:15.742Z,190.43
2023-09-23T02:54:43.959Z,181.95
2023-09-23T02:57:13.460Z,192.95
2023-09-23T02:59:43.030Z,196.40
2023-09-23T03:02:11.377Z,233.85
2023-09-23T03:04:43.857Z,204.38
2023-09-23T03:07:13.137Z,166.35
2023-09-23T03:09:48.766Z,171.27
2023-09-23T03:12:16.752Z,184.00
2023-09-23T03:14:46.726Z,176.75
2023-09-23T03:17:23.226Z,154.70
2023-09-23T03:19:54.071Z,159.40
2023-09-23T03:22:23.221Z,158.77
2023-09-23T03:24:51.558Z,163.40
2023-09-23T03:30:12.936Z,260.10
2023-09-23T03:32:42.453Z,219.85
2023-09-23T03:35:17.650Z,159.07
2023-09-23T03:37:50.424Z,185.02
2023-09-23T03:40:22.138Z,176.55
2023-09-23T03:42:51.942Z,199.77
2023-09-23T03:45:20.179Z,208.45
2023-09-23T03:47:48.713Z,198.13
2023-09-23T03:50:19.009Z,152.05
2023-09-23T03:52:47.054Z,207.75
2023-09-23T03:55:15.094Z,169.38
2023-09-23T03:57:43.711Z,182.85
2023-09-23T04:00:17.357Z,137.93
2023-09-23T04:02:48.758Z,142.77
2023-09-23T04:05:20.748Z,141.23
2023-09-23T04:07:50.749Z,145.10
2023-09-23T04:10:20.064Z,159.43
2023-09-23T04:12:48.424Z,175.77
2023-09-23T04:15:16.712Z,191.25
2023-09-23T04:17:44.713Z,196.77
2023-09-23T04:20:15.859Z,164.20
2023-09-23T04:25:33.489Z,211.27
2023-09-23T04:28:03.060Z,210.65
2023-09-23T04:30:31.988Z,233.50
2023-09-23T04:33:01.896Z,185.77
2023-09-23T04:35:31.157Z,170.23
2023-09-23T04:38:00.989Z,178.77
2023-09-23T04:40:29.064Z,150.60
2023-09-23T04:42:57.082Z,176.65
2023-09-23T04:45:25.205Z,205.60
2023-09-23T04:48:12.690Z,173.35
2023-09-23T04:50:41.922Z,158.52
2023-09-23T04:53:11.303Z,192.75
2023-09-23T04:55:39.732Z,229.45
2023-09-23T04:58:10.007Z,219.82
2023-09-23T05:00:38.949Z,153.82
2023-09-23T05:03:09.807Z,190.73
2023-09-23T05:05:38.622Z,182.15
2023-09-23T05:08:11.520Z,203.00
2023-09-23T05:10:42.369Z,173.27
2023-09-23T05:13:31.398Z,172.48
2023-09-23T05:18:27.316Z,154.10
2023-09-23T05:20:55.325Z,147.02
2023-09-23T05:23:24.365Z,203.00
2023-09-23T05:25:58.884Z,121.85
2023-09-23T05:28:28.822Z,119.45
2023-09-23T05:30:56.866Z,125.43
2023-09-23T05:33:24.868Z,131.63
2023-09-23T05:35:53.105Z,180.23
2023-09-23T05:38:21.614Z,150.57
2023-09-23T05:40:50.208Z,153.80
2023-09-23T05:43:19.599Z,173.25
2023-09-23T05:45:47.602Z,141.27
2023-09-23T05:48:15.998Z,130.77
2023-09-23T05:50:44.202Z,130.05
2023-09-23T05:53:12.251Z,126.65
2023-09-23T05:55:40.259Z,127.40
2023-09-23T05:58:08.206Z,134.90
2023-09-23T06:00:37.585Z,140.13
2023-09-23T06:03:05.835Z,140.05
2023-09-23T06:05:34.030Z,136.38
2023-09-23T06:08:02.223Z,138.13
2023-09-23T06:10:32.641Z,139.35
2023-09-23T06:13:00.642Z,137.13
2023-09-23T06:15:29.552Z,132.52
2023-09-23T06:17:58.914Z,133.07
2023-09-23T06:20:27.029Z,133.85
2023-09-23T06:22:55.640Z,137.68
2023-09-23T06:25:23.823Z,145.43
2023-09-23T06:27:51.838Z,140.98
2023-09-23T06:30:19.991Z,149.02
2023-09-23T06:32:48.459Z,152.77
2023-09-23T06:35:18.076Z,153.82
2023-09-23T06:37:46.169Z,148.00
2023-09-23T06:40:14.256Z,143.38
2023-09-23T06:42:42.346Z,141.95
2023-09-23T06:45:11.289Z,147.75
2023-09-23T06:47:39.562Z,154.32
2023-09-23T06:50:08.470Z,152.77
2023-09-23T06:52:38.016Z,148.00
2023-09-23T06:55:06.535Z,140.25
2023-09-23T06:57:36.185Z,140.88
2023-09-23T07:00:06.221Z,136.95
2023-09-23T07:02:34.431Z,137.75
2023-09-23T07:05:02.793Z,129.80
2023-09-23T07:07:30.811Z,131.68
2023-09-23T07:10:00.270Z,130.45
2023-09-23T07:12:28.279Z,134.30
2023-09-23T07:14:56.373Z,123.90
2023-09-23T07:17:24.483Z,125.35
2023-09-23T07:19:52.654Z,127.68
2023-09-23T07:22:20.630Z,129.30
2023-09-23T07:24:48.756Z,125.20
2023-09-23T07:27:18.098Z,128.93
2023-09-23T07:29:46.052Z,137.63
2023-09-23T07:32:14.108Z,146.50
2023-09-23T07:34:42.142Z,150.23
2023-09-23T07:37:11.381Z,172.30
2023-09-23T07:39:40.632Z,148.52
2023-09-23T07:42:08.627Z,148.40
2023-09-23T07:44:37.964Z,155.75
2023-09-23T07:47:06.103Z,170.32
2023-09-23T07:49:34.065Z,186.15
2023-09-23T07:52:02.052Z,156.95
2023-09-23T07:54:30.034Z,159.60
2023-09-23T07:57:16.614Z,177.98
2023-09-23T07:59:46.053Z,138.82
2023-09-23T08:02:14.278Z,129.00
2023-09-23T08:04:42.411Z,124.65
2023-09-23T08:07:11.075Z,113.43
2023-09-23T08:09:38.993Z,113.53
2023-09-23T08:14:54.530Z,137.00
2023-09-23T08:17:22.623Z,165.27
2023-09-23T08:20:19.317Z,144.63
2023-09-23T08:22:47.609Z,157.73
2023-09-23T08:25:16.348Z,162.13
2023-09-23T08:30:31.964Z,163.73
2023-09-23T08:33:00.057Z,148.18
2023-09-23T08:35:30.758Z,106.78
2023-09-23T08:37:59.795Z,96.15
2023-09-23T08:40:28.627Z,94.18
2023-09-23T08:43:00.517Z,98.20
2023-09-23T08:45:32.748Z,100.32
2023-09-23T08:48:01.021Z,101.05
2023-09-23T08:50:29.753Z,113.22
2023-09-23T08:55:28.264Z,169.88
2023-09-23T08:58:02.808Z,161.75
2023-09-23T09:03:00.487Z,137.63
2023-09-23T09:05:40.162Z,109.78
2023-09-23T09:08:08.874Z,117.70
2023-09-23T09:13:07.633Z,128.13
2023-09-23T09:15:37.220Z,133.48
2023-09-23T09:18:05.990Z,138.48
2023-09-23T09:20:34.826Z,102.38
2023-09-23T09:23:03.708Z,98.47
2023-09-23T09:25:32.573Z,98.93
2023-09-23T09:28:00.783Z,99.90
2023-09-23T09:30:28.996Z,124.38
2023-09-23T09:33:02.878Z,90.43
2023-09-23T09:35:33.349Z,85.07
2023-09-23T09:38:17.189Z,89.30
2023-09-23T09:40:46.534Z,88.68
2023-09-23T09:43:16.172Z,84.75
2023-09-23T09:45:45.840Z,86.22
2023-09-23T09:48:17.097Z,73.40
2023-09-23T09:50:46.816Z,71.47
2023-09-23T09:53:15.229Z,69.57
2023-09-23T09:55:43.575Z,65.18
2023-09-23T09:58:11.658Z,65.97
2023-09-23T10:00:59.167Z,73.43
2023-09-23T10:03:30.219Z,78.40
2023-09-23T10:06:01.862Z,81.35
2023-09-23T10:08:39.011Z,82.68
2023-09-23T10:11:10.396Z,84.32
2023-09-23T10:18:59.106Z,124.85
2023-09-23T10:21:29.192Z,146.27
2023-09-23T10:23:58.686Z,105.13
2023-09-23T10:26:30.105Z,127.50
2023-09-23T10:29:00.475Z,132.25
2023-09-23T10:31:28.977Z,171.50
2023-09-23T10:33:58.797Z,145.50
2023-09-23T10:36:27.540Z,70.57
2023-09-23T10:38:56.865Z,74.03
2023-09-23T10:41:33.433Z,74.30
2023-09-23T10:44:01.577Z,81.18
2023-09-23T10:46:29.632Z,89.35
2023-09-23T10:49:01.020Z,101.95
2023-09-23T10:51:32.618Z,99.60
2023-09-23T10:54:01.826Z,102.55
2023-09-23T10:56:30.373Z,135.50
2023-09-23T10:58:59.275Z,148.30
2023-09-23T11:01:27.500Z,170.48
2023-09-23T11:03:55.786Z,84.63
2023-09-23T11:06:25.513Z,76.13
2023-09-23T11:08:53.520Z,71.68
2023-09-23T11:11:23.056Z,81.13
2023-09-23T11:13:51.517Z,74.90
2023-09-23T11:16:19.508Z,78.40
2023-09-23T11:18:48.919Z,73.32
2023-09-23T11:21:17.474Z,1.30
2023-09-23T11:23:46.853Z,23.65
2023-09-23T11:26:15.333Z,57.35
2023-09-23T11:28:43.578Z,57.38
2023-09-23T11:31:11.573Z,71.68
2023-09-23T11:33:39.720Z,83.53
2023-09-23T11:36:07.990Z,77.25
2023-09-23T11:38:36.117Z,84.47
2023-09-23T11:41:06.131Z,81.15
2023-09-23T11:43:34.169Z,97.55
2023-09-23T11:46:02.310Z,163.40
2023-09-23T11:48:30.363Z,129.77
2023-09-23T11:50:58.425Z,170.75
2023-09-23T11:53:27.135Z,125.00
2023-09-23T11:55:55.349Z,129.00
2023-09-23T11:58:24.869Z,103.13
2023-09-23T12:00:53.002Z,110.65
2023-09-23T12:03:21.110Z,142.27
2023-09-23T12:05:54.434Z,113.82
2023-09-23T12:08:22.874Z,125.10
2023-09-23T12:10:51.325Z,120.47
2023-09-23T12:13:19.750Z,101.72
2023-09-23T12:15:49.104Z,112.25
2023-09-23T12:18:17.550Z,142.43
2023-09-23T12:23:16.529Z,142.20
2023-09-23T12:25:45.218Z,155.27
2023-09-23T12:30:41.024Z,143.05
2023-09-23T12:33:13.321Z,165.05
2023-09-23T12:35:41.795Z,180.07
2023-09-23T12:38:11.795Z,135.32
2023-09-23T12:40:39.941Z,122.03
2023-09-23T12:43:07.928Z,127.55
2023-09-23T12:45:35.974Z,57.17
2023-09-23T12:48:04.360Z,46.95
2023-09-23T12:50:33.743Z,51.47
2023-09-23T12:53:01.870Z,51.90
2023-09-23T12:55:29.964Z,49.58
2023-09-23T12:57:57.984Z,52.20
2023-09-23T13:00:26.010Z,56.53
2023-09-23T13:02:54.136Z,65.80
2023-09-23T13:05:22.546Z,76.40
2023-09-23T13:07:51.929Z,85.95
2023-09-23T13:10:19.949Z,110.38
2023-09-23T13:12:47.940Z,169.32
2023-09-23T13:15:16.308Z,109.00
2023-09-23T13:17:45.001Z,178.85
2023-09-23T13:20:13.657Z,105.65
2023-09-23T13:25:12.252Z,102.20
2023-09-23T13:27:40.215Z,87.60
2023-09-23T13:30:10.862Z,92.00
2023-09-23T13:32:40.316Z,97.15
2023-09-23T13:35:10.848Z,89.03
2023-09-23T13:37:39.496Z,90.70
2023-09-23T13:40:12.015Z,132.40
2023-09-23T13:42:40.107Z,131.50
2023-09-23T13:45:09.321Z,156.32
2023-09-23T13:47:38.831Z,159.57
2023-09-23T13:50:09.875Z,147.00
2023-09-23T13:52:37.989Z,171.60
2023-09-23T13:55:07.335Z,124.95
2023-09-23T13:57:36.833Z,160.48
2023-09-23T14:00:25.414Z,140.73
2023-09-23T14:02:53.478Z,90.93
2023-09-23T14:05:21.875Z,81.32
2023-09-23T14:07:49.843Z,71.45
2023-09-23T14:10:21.806Z,76.78
2023-09-23T14:12:51.792Z,87.38
2023-09-23T14:15:20.226Z,94.35
2023-09-23T14:17:49.259Z,100.70
2023-09-23T14:20:17.824Z,107.13
2023-09-23T14:22:47.638Z,123.15
2023-09-23T14:25:18.065Z,188.10
2023-09-23T14:27:46.095Z,171.98
2023-09-23T14:30:16.342Z,158.15
2023-09-23T14:32:44.402Z,163.75
2023-09-23T14:35:12.434Z,176.73
2023-09-23T14:37:40.676Z,132.02
2023-09-23T14:40:10.230Z,127.00
2023-09-23T14:42:58.301Z,135.25
2023-09-23T14:45:27.619Z,119.35
2023-09-23T14:47:55.763Z,159.60
2023-09-23T14:50:25.416Z,134.57
2023-09-23T14:52:53.525Z,157.25
2023-09-23T14:55:23.192Z,126.25
2023-09-23T14:57:51.191Z,133.82
2023-09-23T15:00:19.208Z,143.60
2023-09-23T15:02:48.988Z,132.93
2023-09-23T15:05:17.252Z,119.53
2023-09-23T15:07:45.620Z,125.88
2023-09-23T15:10:13.747Z,164.02
2023-09-23T15:12:41.761Z,113.03
2023-09-23T15:15:10.461Z,115.53
2023-09-23T15:17:40.036Z,137.27
2023-09-23T15:20:12.076Z,114.63
2023-09-23T15:22:40.458Z,123.75
2023-09-23T15:25:09.892Z,147.30
2023-09-23T15:27:38.237Z,166.90
2023-09-23T15:30:08.301Z,138.48
2023-09-23T15:32:36.716Z,153.40
2023-09-23T15:35:06.169Z,124.57
2023-09-23T15:37:36.006Z,104.40
2023-09-23T15:40:05.154Z,99.70
2023-09-23T15:42:33.995Z,94.00
2023-09-23T15:45:02.023Z,89.80
2023-09-23T15:47:30.325Z,89.72
2023-09-23T15:49:59.506Z,110.25
2023-09-23T15:52:27.932Z,129.13
2023-09-23T15:54:59.257Z,132.48
2023-09-23T15:57:27.332Z,131.00
2023-09-23T15:59:55.370Z,117.72
2023-09-23T16:02:23.430Z,126.22
2023-09-23T16:04:51.497Z,121.32
2023-09-23T16:07:19.610Z,122.38
2023-09-23T16:09:47.630Z,92.97
2023-09-23T16:12:16.926Z,51.53
2023-09-23T16:14:44.877Z,50.28
2023-09-23T16:17:13.108Z,50.60
2023-09-23T16:19:41.362Z,79.07
2023-09-23T16:22:09.479Z,93.80
2023-09-23T16:24:37.488Z,87.70
2023-09-23T16:27:05.508Z,93.03
2023-09-23T16:29:34.876Z,58.30
2023-09-23T16:32:03.016Z,39.53
2023-09-23T16:34:31.349Z,40.58
2023-09-23T16:36:59.344Z,45.63
2023-09-23T16:39:27.404Z,48.85
2023-09-23T16:41:55.504Z,50.90
2023-09-23T16:44:24.565Z,48.58
2023-09-23T16:46:54.992Z,53.25
2023-09-23T16:49:23.079Z,63.95
2023-09-23T16:51:51.100Z,108.00
2023-09-23T16:54:19.093Z,102.53
2023-09-23T16:56:47.070Z,107.30
2023-09-23T16:59:16.047Z,107.00
2023-09-23T17:01:44.154Z,106.13
2023-09-23T17:04:13.571Z,114.82
2023-09-23T17:06:41.614Z,87.28
2023-09-23T17:09:10.514Z,68.57
2023-09-23T17:11:38.533Z,66.35
2023-09-23T17:14:06.641Z,56.42
2023-09-23T17:16:34.989Z,57.08
2023-09-23T17:19:03.611Z,48.88
2023-09-23T17:24:00.817Z,62.20
2023-09-23T17:26:28.905Z,62.53
2023-09-23T17:29:00.397Z,61.83
2023-09-23T17:31:28.560Z,59.13
2023-09-23T17:33:56.625Z,64.72
2023-09-23T17:36:25.725Z,68.95
2023-09-23T17:38:54.978Z,59.28
2023-09-23T17:41:23.208Z,64.00
2023-09-23T17:43:51.201Z,67.65
2023-09-23T17:46:19.220Z,71.90
2023-09-23T17:48:47.495Z,73.05
2023-09-23T17:51:15.649Z,71.05
2023-09-23T17:53:43.703Z,72.72
2023-09-23T17:56:13.107Z,74.82
2023-09-23T17:58:41.162Z,76.53
2023-09-23T18:01:09.188Z,77.00
2023-09-23T18:03:37.771Z,79.35
2023-09-23T18:06:06.084Z,68.57
2023-09-23T18:08:34.136Z,71.72
2023-09-23T18:11:02.184Z,83.43
2023-09-23T18:13:32.284Z,84.85
2023-09-23T18:16:00.377Z,73.63
2023-09-23T18:18:29.870Z,87.20
2023-09-23T18:21:17.716Z,86.72
2023-09-23T18:23:46.019Z,88.05
2023-09-23T18:26:15.205Z,85.88
2023-09-23T18:28:45.853Z,76.78
2023-09-23T18:31:13.850Z,70.80
2023-09-23T18:33:42.272Z,68.60
2023-09-23T18:36:11.859Z,70.30
2023-09-23T18:38:40.016Z,83.95
2023-09-23T18:41:08.093Z,68.72
2023-09-23T18:43:36.087Z,70.13
2023-09-23T18:46:05.441Z,81.38
2023-09-23T18:48:33.810Z,91.20
2023-09-23T18:51:01.926Z,84.82
2023-09-23T18:53:50.770Z,82.68
2023-09-23T18:56:18.807Z,91.32
2023-09-23T18:58:47.033Z,81.60
2023-09-23T19:01:16.534Z,88.35
2023-09-23T19:03:44.812Z,101.68
2023-09-23T19:06:12.910Z,112.88
2023-09-23T19:08:41.369Z,105.30
2023-09-23T19:11:09.394Z,126.88
2023-09-23T19:13:38.017Z,128.13
2023-09-23T19:16:06.492Z,124.47
2023-09-23T19:18:35.963Z,147.25
2023-09-23T19:21:03.936Z,152.10
2023-09-23T19:23:31.943Z,139.77
2023-09-23T19:26:02.129Z,130.23
2023-09-23T19:28:31.137Z,119.38
2023-09-23T19:30:59.185Z,163.00
2023-09-23T19:33:50.352Z,105.13
2023-09-23T19:36:18.339Z,113.70
2023-09-23T19:38:46.492Z,167.32
2023-09-23T19:41:14.579Z,108.75
2023-09-23T19:43:42.624Z,121.38
2023-09-23T19:46:10.795Z,82.78
2023-09-23T19:49:00.653Z,81.35
2023-09-23T19:51:31.658Z,85.47
2023-09-23T19:53:59.789Z,93.35
2023-09-23T19:56:27.870Z,111.80
2023-09-23T19:58:55.870Z,145.32
2023-09-23T20:01:24.395Z,122.82
2023-09-23T20:03:53.005Z,132.05
2023-09-23T20:06:22.523Z,124.00
2023-09-23T20:08:50.602Z,120.00
2023-09-23T20:11:20.689Z,129.48
2023-09-23T20:13:49.518Z,138.32
2023-09-23T20:18:45.479Z,158.30
2023-09-23T20:21:13.528Z,117.88
2023-09-23T20:23:43.062Z,123.05
2023-09-23T20:26:11.551Z,132.10
2023-09-23T20:28:39.532Z,134.15
2023-09-23T20:31:07.556Z,157.55
2023-09-23T20:33:35.711Z,120.55
2023-09-23T20:36:04.357Z,187.60
2023-09-23T20:38:33.182Z,169.95
2023-09-23T20:41:03.687Z,148.57
2023-09-23T20:43:32.498Z,159.60
2023-09-23T20:46:00.883Z,162.48
2023-09-23T20:48:29.387Z,109.00
2023-09-23T20:51:17.652Z,115.32
2023-09-23T20:56:33.525Z,126.78
2023-09-23T20:59:02.787Z,132.77
2023-09-23T21:01:31.039Z,182.32
2023-09-23T21:03:58.414Z,212.30
2023-09-23T21:06:46.749Z,185.95
2023-09-23T21:09:16.770Z,177.95
2023-09-23T21:11:46.390Z,143.55
2023-09-23T21:14:14.542Z,188.40
2023-09-23T21:16:42.556Z,187.73
2023-09-23T21:19:10.579Z,194.15
2023-09-23T21:21:39.465Z,178.77
2023-09-23T21:24:08.556Z,215.73
2023-09-23T21:26:37.193Z,224.57
2023-09-23T21:29:07.721Z,215.77
2023-09-23T21:31:36.117Z,221.73
2023-09-23T21:34:04.121Z,208.75
2023-09-23T21:36:32.153Z,135.60
2023-09-23T21:39:00.812Z,128.98
2023-09-23T21:41:28.815Z,175.30
2023-09-23T21:43:56.831Z,178.70
2023-09-23T21:46:26.204Z,157.65
2023-09-23T21:48:54.160Z,113.60
2023-09-23T21:51:41.023Z,110.60
2023-09-23T21:54:10.698Z,109.55
2023-09-23T21:56:44.379Z,110.55
2023-09-23T21:59:13.030Z,128.02
2023-09-23T22:01:42.447Z,177.88
2023-09-23T22:04:10.832Z,175.38
2023-09-23T22:06:39.790Z,147.88
2023-09-23T22:11:36.477Z,133.18
2023-09-23T22:14:06.768Z,187.77
2023-09-23T22:16:35.759Z,157.25
2023-09-23T22:21:35.712Z,202.25
2023-09-23T22:24:06.496Z,187.70
2023-09-23T22:26:36.201Z,148.75
2023-09-23T22:29:10.182Z,129.07
2023-09-23T22:31:39.475Z,139.25
2023-09-23T22:34:09.300Z,159.48
2023-09-23T22:36:37.315Z,156.85
2023-09-23T22:39:07.261Z,158.93
2023-09-23T22:41:35.399Z,133.85
2023-09-23T22:44:03.732Z,124.90
2023-09-23T22:46:31.755Z,127.65
2023-09-23T22:49:00.049Z,176.15
2023-09-23T22:51:30.713Z,151.98
2023-09-23T22:53:58.929Z,155.45
2023-09-23T22:56:27.337Z,162.27
2023-09-23T22:58:55.808Z,147.77
2023-09-23T23:01:23.871Z,141.52
2023-09-23T23:03:53.360Z,177.90
2023-09-23T23:06:21.477Z,168.25
2023-09-23T23:08:52.165Z,132.82
2023-09-23T23:11:21.832Z,128.45
2023-09-23T23:13:50.659Z,136.73
2023-09-23T23:16:21.150Z,175.98
2023-09-23T23:18:49.783Z,154.15
2023-09-23T23:21:17.858Z,141.48
2023-09-23T23:23:45.840Z,121.40
2023-09-23T23:26:16.277Z,143.95
2023-09-23T23:28:44.274Z,170.68
2023-09-23T23:31:12.397Z,149.75
2023-09-23T23:33:40.665Z,144.65
2023-09-23T23:36:09.038Z,122.45
2023-09-23T23:38:37.066Z,132.43
2023-09-23T23:41:05.131Z,162.48
2023-09-23T23:43:34.454Z,158.80
2023-09-23T23:46:03.519Z,164.95
2023-09-23T23:48:33.164Z,121.80
2023-09-23T23:51:05.777Z,116.47
2023-09-23T23:53:34.518Z,112.88
2023-09-23T23:58:30.672Z,118.28
